Diana, West Virginia
Current Conditions -  °F | °C
As of 9:15 PM on Saturday 25 Oct 2014 (Local Time) from KW22 Reporting Station
NA  
Wind Chill: 57°   Ceiling: NA
Heat Index: 57°   Visibility: 10mi
Dew Point: 48°   Wind: 13mph
Humidity: 72%   Direction: 220°SW
Pressure: 29.86"   Gusts: 20mph
Location:  38.57°N, 80.44°W
Report Text: KW22 260115Z AUTO 22011G17KT 10SM 14/09 A2986 RMK AO2
Loading
Personal Weather Stations






























Interactive Weather Map New forecast layout! Learn more

10-Day Weather Forecast

Advertisements
Track Severe Weather on mobile